Nearby METAR Reports

 

LFRV - Vannes-Meucon, FRANCE
Distance from station: NE 28km
Mise à jour: 02/03/2024 19:30
Clair
Clair
 Wind from NNO
Vent: NNO 11 km/h
Température: 6°C
Wind Chill: 4°C
Point de rosée: 2°C
Humidité: 76%
Baromètre: 996 hPa
Résumé: Clair
Visibility: greater than 10 km
2024/03/02 18:30 LFRV 021830Z AUTO 33006KT CAVOK 06/02 Q0996
LFRZ - Saint - Nazaire / Montoir, FRANCE
Distance from station: SE 64km
Mise à jour: 02/03/2024 20:00
Clair
Clair
 Wind from O
Vent: O 11 km/h
Température: 8°C
Wind Chill: 6°C
Point de rosée: 4°C
Humidité: 76%
Baromètre: 996 hPa
Résumé: Clair
Visibility: greater than 10 km
2024/03/02 19:00 LFRZ 021900Z AUTO 27006KT CAVOK 08/04 Q0996 NOSIG
 
LFRH - Lorient / Lann- Bihoué, FRANCE
Distance from station: NO 81km
Mise à jour: 02/03/2024 20:00
nuageux
nuageux
 Wind from NO
Vent: NO 7 km/h
Température: 6°C
Wind Chill: 4°C
Point de rosée: 3°C
Humidité: 81%
Baromètre: 998 hPa
Clouds: nuageux
Visibility: 10 km
Cloud details: Peu nuageux 1189 m
partiellement nuageux 1402 m
nuageux 1707 m
2024/03/02 19:00 LFRH 021900Z AUTO 32004KT 9999 FEW039 SCT046 BKN056 06/03 Q0998 TEMPO SHRA
LFRB - Brest - Guipavas, FRANCE
Distance from station: NO 200km
Mise à jour: 02/03/2024 20:00
nuageux
nuageux
 Wind from O
Vent: O 6 km/h
Température: 5°C
Point de rosée: 1°C
Humidité: 76%
Baromètre: 998 hPa
Clouds: nuageux
Visibility: 10 km
Cloud details: Peu nuageux 1250 m
nuageux 1494 m
2024/03/02 19:00 LFRB 021900Z AUTO 28003KT 260V320 9999 FEW041 BKN049 05/01 Q0998 TEMPO 3000 SHRA BKN012 BKN020CB
 
LFPV - Villacoublay - Vélizy/, FRANCE
Distance from station: NE 450km
Mise à jour: 02/03/2024 20:00
pluie légère, Orage
pluie légère, Orage
 Wind from varies
Vent: varies 6 km/h
Température: 5°C
Point de rosée: 4°C
Humidité: 93%
Baromètre: 995 hPa
Résumé: pluie légère
Clouds: Orage
Visibility: 10 km
Cloud details: Peu nuageux 427 m
nuageux 914 m
Couvert 1128 m
2024/03/02 19:00 LFPV 021900Z AUTO VRB03KT 9999 -RA FEW014/// BKN030/// OVC037/// ///TCU 05/04 Q0995 TEMPO 4000 -SHRA BKN008 BKN012CB
LFRS - Nantes Atlantique, FRANCE
Distance from station: SE 106km
Mise à jour: 02/03/2024 20:00
partiellement nuageux
partiellement nuageux
 Wind from calm
Vent: calme
Température: 6°C
Point de rosée: 5°C
Humidité: 93%
Baromètre: 996 hPa
Clouds: partiellement nuageux
Visibility: 10 km
Cloud details: Peu nuageux 122 m
partiellement nuageux 2195 m
2024/03/02 19:00 LFRS 021900Z AUTO 00000KT 9999 FEW004 SCT072 06/05 Q0996 TEMPO 4000 SHRA BKN025CB